sensor_id;sensor_type;location;lat;lon;timestamp;P1;P2;P0
76383;PMS7003;65204;48.606;7.598;2023-03-23T00:00:24;1.60;1.60;1.60
76383;PMS7003;65204;48.606;7.598;2023-03-23T00:00:54;1.00;1.00;1.00
76383;PMS7003;65204;48.606;7.598;2023-03-23T00:01:25;2.00;2.00;1.25
76383;PMS7003;65204;48.606;7.598;2023-03-23T00:01:56;1.20;1.20;1.00
76383;PMS7003;65204;48.606;7.598;2023-03-23T00:02:27;2.25;2.00;1.50
76383;PMS7003;65204;48.606;7.598;2023-03-23T00:02:59;2.80;2.80;2.00
76383;PMS7003;65204;48.606;7.598;2023-03-23T00:03:29;1.00;1.00;1.00
76383;PMS7003;65204;48.606;7.598;2023-03-23T00:04:02;1.20;1.20;1.20
76383;PMS7003;65204;48.606;7.598;2023-03-23T00:04:32;1.40;1.40;1.00
76383;PMS7003;65204;48.606;7.598;2023-03-23T00:05:04;1.00;1.00;1.00
76383;PMS7003;65204;48.606;7.598;2023-03-23T00:05:38;1.60;1.60;1.40
76383;PMS7003;65204;48.606;7.598;2023-03-23T00:06:11;2.00;2.00;2.00
76383;PMS7003;65204;48.606;7.598;2023-03-23T00:06:46;1.00;1.00;1.00
76383;PMS7003;65204;48.606;7.598;2023-03-23T00:07:17;1.75;1.75;1.75
76383;PMS7003;65204;48.606;7.598;2023-03-23T00:07:51;3.60;1.20;1.00
76383;PMS7003;65204;48.606;7.598;2023-03-23T00:08:25;3.00;1.40;1.00
76383;PMS7003;65204;48.606;7.598;2023-03-23T00:08:56;1.00;1.00;1.00
76383;PMS7003;65204;48.606;7.598;2023-03-23T00:09:29;2.00;2.00;2.00
76383;PMS7003;65204;48.606;7.598;2023-03-23T00:09:59;1.00;1.00;1.00
76383;PMS7003;65204;48.606;7.598;2023-03-23T00:10:34;2.00;1.20;1.00
76383;PMS7003;65204;48.606;7.598;2023-03-23T00:11:05;3.60;2.00;1.00
76383;PMS7003;65204;48.606;7.598;2023-03-23T00:11:35;1.00;1.00;1.00
76383;PMS7003;65204;48.606;7.598;2023-03-23T00:12:05;1.00;1.00;1.00
76383;PMS7003;65204;48.606;7.598;2023-03-23T00:12:36;6.00;3.00;2.00
76383;PMS7003;65204;48.606;7.598;2023-03-23T00:13:07;3.00;1.00;1.00
76383;PMS7003;65204;48.606;7.598;2023-03-23T00:13:37;1.75;1.25;1.00
76383;PMS7003;65204;48.606;7.598;2023-03-23T00:14:08;2.00;2.00;1.75
76383;PMS7003;65204;48.606;7.598;2023-03-23T00:14:42;2.00;1.40;1.40
76383;PMS7003;65204;48.606;7.598;2023-03-23T00:15:13;2.50;2.00;1.50
76383;PMS7003;65204;48.606;7.598;2023-03-23T00:15:46;2.00;2.00;1.40
76383;PMS7003;65204;48.606;7.598;2023-03-23T00:16:20;2.00;2.00;1.80
76383;PMS7003;65204;48.606;7.598;2023-03-23T00:16:58;2.60;2.00;1.00
76383;PMS7003;65204;48.606;7.598;2023-03-23T00:17:29;3.50;2.00;2.00
76383;PMS7003;65204;48.606;7.598;2023-03-23T00:18:02;2.00;2.00;2.00
76383;PMS7003;65204;48.606;7.598;2023-03-23T00:18:34;1.00;1.00;0.60
76383;PMS7003;65204;48.606;7.598;2023-03-23T00:19:06;1.50;1.50;1.00
76383;PMS7003;65204;48.606;7.598;2023-03-23T00:19:37;4.20;2.00;1.20
76383;PMS7003;65204;48.606;7.598;2023-03-23T00:20:17;2.80;1.00;1.00
76383;PMS7003;65204;48.606;7.598;2023-03-23T00:20:48;1.00;1.00;1.00
76383;PMS7003;65204;48.606;7.598;2023-03-23T00:21:20;2.60;2.00;1.80
76383;PMS7003;65204;48.606;7.598;2023-03-23T00:21:55;1.40;1.40;1.40
76383;PMS7003;65204;48.606;7.598;2023-03-23T00:22:25;2.00;2.00;2.00
76383;PMS7003;65204;48.606;7.598;2023-03-23T00:22:55;1.25;1.25;1.00
76383;PMS7003;65204;48.606;7.598;2023-03-23T00:23:30;2.20;1.00;1.00
76383;PMS7003;65204;48.606;7.598;2023-03-23T00:24:01;1.50;1.00;1.00
76383;PMS7003;65204;48.606;7.598;2023-03-23T00:24:39;3.80;2.00;1.80
76383;PMS7003;65204;48.606;7.598;2023-03-23T00:25:10;2.40;1.20;1.00
76383;PMS7003;65204;48.606;7.598;2023-03-23T00:25:40;1.75;1.00;1.00
76383;PMS7003;65204;48.606;7.598;2023-03-23T00:26:11;2.00;2.00;1.75
76383;PMS7003;65204;48.606;7.598;2023-03-23T00:26:43;2.00;2.00;1.80
76383;PMS7003;65204;48.606;7.598;2023-03-23T00:27:15;1.00;1.00;1.00
76383;PMS7003;65204;48.606;7.598;2023-03-23T00:27:45;3.50;2.00;2.00
76383;PMS7003;65204;48.606;7.598;2023-03-23T00:28:15;1.75;1.00;1.00
76383;PMS7003;65204;48.606;7.598;2023-03-23T00:28:46;2.60;2.00;1.40
76383;PMS7003;65204;48.606;7.598;2023-03-23T00:29:18;1.75;1.75;1.00
76383;PMS7003;65204;48.606;7.598;2023-03-23T00:29:53;1.60;1.60;1.60
76383;PMS7003;65204;48.606;7.598;2023-03-23T00:30:23;1.00;1.00;1.00
76383;PMS7003;65204;48.606;7.598;2023-03-23T00:30:58;2.50;2.00;2.00
76383;PMS7003;65204;48.606;7.598;2023-03-23T00:31:31;2.00;2.00;2.00
76383;PMS7003;65204;48.606;7.598;2023-03-23T00:32:02;1.20;1.20;1.00
76383;PMS7003;65204;48.606;7.598;2023-03-23T00:32:32;1.00;1.00;1.00
76383;PMS7003;65204;48.606;7.598;2023-03-23T00:33:03;1.50;1.50;1.00
76383;PMS7003;65204;48.606;7.598;2023-03-23T00:33:34;3.00;2.00;1.00
76383;PMS7003;65204;48.606;7.598;2023-03-23T00:34:10;1.20;1.20;1.00
76383;PMS7003;65204;48.606;7.598;2023-03-23T00:34:42;1.00;1.00;1.00
76383;PMS7003;65204;48.606;7.598;2023-03-23T00:35:13;2.00;2.00;1.60
76383;PMS7003;65204;48.606;7.598;2023-03-23T00:35:44;3.50;1.00;1.00
76383;PMS7003;65204;48.606;7.598;2023-03-23T00:36:14;1.50;1.50;1.00
76383;PMS7003;65204;48.606;7.598;2023-03-23T00:36:49;3.50;2.00;2.00
76383;PMS7003;65204;48.606;7.598;2023-03-23T00:37:26;1.20;1.20;1.00
76383;PMS7003;65204;48.606;7.598;2023-03-23T00:37:57;3.25;1.00;1.00
76383;PMS7003;65204;48.606;7.598;2023-03-23T00:38:28;2.80;1.60;1.00
76383;PMS7003;65204;48.606;7.598;2023-03-23T00:38:58;0.75;0.75;0.75
76383;PMS7003;65204;48.606;7.598;2023-03-23T00:39:30;1.00;1.00;0.80
76383;PMS7003;65204;48.606;7.598;2023-03-23T00:40:01;2.00;2.00;1.50
76383;PMS7003;65204;48.606;7.598;2023-03-23T00:40:36;2.00;1.00;1.00
76383;PMS7003;65204;48.606;7.598;2023-03-23T00:41:07;2.75;1.50;1.00
76383;PMS7003;65204;48.606;7.598;2023-03-23T00:41:37;1.00;1.00;1.00
76383;PMS7003;65204;48.606;7.598;2023-03-23T00:42:08;1.00;1.00;1.00
76383;PMS7003;65204;48.606;7.598;2023-03-23T00:42:38;1.00;1.00;1.00
76383;PMS7003;65204;48.606;7.598;2023-03-23T00:43:09;1.25;1.25;1.00
76383;PMS7003;65204;48.606;7.598;2023-03-23T00:43:43;3.00;2.00;1.00
76383;PMS7003;65204;48.606;7.598;2023-03-23T00:44:13;0.50;0.50;0.50
76383;PMS7003;65204;48.606;7.598;2023-03-23T00:44:46;3.00;1.60;1.60
76383;PMS7003;65204;48.606;7.598;2023-03-23T00:45:17;2.00;2.00;2.00
76383;PMS7003;65204;48.606;7.598;2023-03-23T00:45:47;1.00;1.00;1.00
76383;PMS7003;65204;48.606;7.598;2023-03-23T00:46:22;1.00;1.00;1.00
76383;PMS7003;65204;48.606;7.598;2023-03-23T00:46:54;0.00;0.00;0.00
76383;PMS7003;65204;48.606;7.598;2023-03-23T00:47:26;1.60;1.60;1.00
76383;PMS7003;65204;48.606;7.598;2023-03-23T00:47:57;2.20;1.20;1.00
76383;PMS7003;65204;48.606;7.598;2023-03-23T00:48:31;2.00;2.00;1.40
76383;PMS7003;65204;48.606;7.598;2023-03-23T00:49:02;1.00;1.00;1.00
76383;PMS7003;65204;48.606;7.598;2023-03-23T00:49:33;1.00;1.00;1.00
76383;PMS7003;65204;48.606;7.598;2023-03-23T00:50:04;0.40;0.40;0.00
76383;PMS7003;65204;48.606;7.598;2023-03-23T00:50:35;1.00;1.00;0.80
76383;PMS7003;65204;48.606;7.598;2023-03-23T00:51:06;2.00;2.00;1.25
76383;PMS7003;65204;48.606;7.598;2023-03-23T00:51:41;1.00;1.00;1.00
76383;PMS7003;65204;48.606;7.598;2023-03-23T00:52:12;2.00;1.50;1.00
76383;PMS7003;65204;48.606;7.598;2023-03-23T00:52:42;1.00;1.00;1.00
76383;PMS7003;65204;48.606;7.598;2023-03-23T00:53:13;2.00;2.00;1.00
76383;PMS7003;65204;48.606;7.598;2023-03-23T00:53:44;1.00;1.00;0.60
76383;PMS7003;65204;48.606;7.598;2023-03-23T00:54:15;1.00;1.00;1.00
76383;PMS7003;65204;48.606;7.598;2023-03-23T00:54:45;2.00;2.00;2.00
76383;PMS7003;65204;48.606;7.598;2023-03-23T00:55:15;1.00;1.00;1.00
76383;PMS7003;65204;48.606;7.598;2023-03-23T00:55:46;2.25;2.25;2.00
76383;PMS7003;65204;48.606;7.598;2023-03-23T00:56:18;4.60;2.00;2.00
76383;PMS7003;65204;48.606;7.598;2023-03-23T00:56:48;1.75;1.75;1.50
76383;PMS7003;65204;48.606;7.598;2023-03-23T00:57:19;1.25;1.25;1.00
76383;PMS7003;65204;48.606;7.598;2023-03-23T00:57:49;1.25;1.25;1.25
76383;PMS7003;65204;48.606;7.598;2023-03-23T00:58:21;2.60;1.00;1.00
76383;PMS7003;65204;48.606;7.598;2023-03-23T00:58:51;1.25;1.25;1.25
76383;PMS7003;65204;48.606;7.598;2023-03-23T00:59:21;2.00;2.00;1.00
76383;PMS7003;65204;48.606;7.598;2023-03-23T00:59:52;2.00;2.00;2.00
76383;PMS7003;65204;48.606;7.598;2023-03-23T01:00:22;1.25;1.25;1.00
76383;PMS7003;65204;48.606;7.598;2023-03-23T01:00:53;2.00;2.00;2.00
76383;PMS7003;65204;48.606;7.598;2023-03-23T01:01:23;1.00;1.00;1.00
76383;PMS7003;65204;48.606;7.598;2023-03-23T01:01:54;1.75;1.75;1.00
76383;PMS7003;65204;48.606;7.598;2023-03-23T01:02:24;2.00;2.00;1.50
76383;PMS7003;65204;48.606;7.598;2023-03-23T01:02:55;2.20;1.60;1.40
76383;PMS7003;65204;48.606;7.598;2023-03-23T01:03:26;2.00;1.00;1.00
76383;PMS7003;65204;48.606;7.598;2023-03-23T01:03:58;2.20;2.20;2.00
76383;PMS7003;65204;48.606;7.598;2023-03-23T01:04:33;1.80;1.80;1.40
76383;PMS7003;65204;48.606;7.598;2023-03-23T01:05:06;2.20;1.00;1.00
76383;PMS7003;65204;48.606;7.598;2023-03-23T01:05:38;2.00;2.00;1.25
76383;PMS7003;65204;48.606;7.598;2023-03-23T01:06:09;1.00;1.00;1.00
76383;PMS7003;65204;48.606;7.598;2023-03-23T01:06:43;1.40;1.40;1.40
76383;PMS7003;65204;48.606;7.598;2023-03-23T01:07:14;4.00;2.20;2.00
76383;PMS7003;65204;48.606;7.598;2023-03-23T01:07:47;2.00;1.20;1.20
76383;PMS7003;65204;48.606;7.598;2023-03-23T01:08:18;2.00;2.00;1.50
76383;PMS7003;65204;48.606;7.598;2023-03-23T01:08:49;2.00;2.00;1.20
76383;PMS7003;65204;48.606;7.598;2023-03-23T01:09:19;2.00;2.00;2.00
76383;PMS7003;65204;48.606;7.598;2023-03-23T01:09:51;1.00;1.00;1.00
76383;PMS7003;65204;48.606;7.598;2023-03-23T01:10:23;2.60;2.20;1.60
76383;PMS7003;65204;48.606;7.598;2023-03-23T01:11:01;2.00;2.00;1.80
76383;PMS7003;65204;48.606;7.598;2023-03-23T01:11:35;1.00;1.00;1.00
76383;PMS7003;65204;48.606;7.598;2023-03-23T01:12:07;1.00;1.00;1.00
76383;PMS7003;65204;48.606;7.598;2023-03-23T01:12:38;3.00;2.00;1.75
76383;PMS7003;65204;48.606;7.598;2023-03-23T01:13:09;0.00;0.00;0.00
76383;PMS7003;65204;48.606;7.598;2023-03-23T01:13:39;2.00;2.00;1.50
76383;PMS7003;65204;48.606;7.598;2023-03-23T01:14:12;1.00;1.00;1.00
76383;PMS7003;65204;48.606;7.598;2023-03-23T01:14:44;1.00;1.00;1.00
76383;PMS7003;65204;48.606;7.598;2023-03-23T01:15:16;2.00;1.75;1.25
76383;PMS7003;65204;48.606;7.598;2023-03-23T01:15:47;2.40;2.40;2.00
76383;PMS7003;65204;48.606;7.598;2023-03-23T01:16:17;0.00;0.00;0.00
76383;PMS7003;65204;48.606;7.598;2023-03-23T01:16:47;2.00;2.00;2.00
76383;PMS7003;65204;48.606;7.598;2023-03-23T01:17:18;3.25;2.00;2.00
76383;PMS7003;65204;48.606;7.598;2023-03-23T01:17:49;2.80;1.60;1.00
76383;PMS7003;65204;48.606;7.598;2023-03-23T01:18:20;2.50;2.50;2.00
76383;PMS7003;65204;48.606;7.598;2023-03-23T01:18:50;2.00;2.00;1.50
76383;PMS7003;65204;48.606;7.598;2023-03-23T01:19:21;1.50;1.00;1.00
76383;PMS7003;65204;48.606;7.598;2023-03-23T01:19:51;3.50;2.25;2.00
76383;PMS7003;65204;48.606;7.598;2023-03-23T01:20:22;2.00;2.00;1.75
76383;PMS7003;65204;48.606;7.598;2023-03-23T01:20:53;2.00;2.00;1.80
76383;PMS7003;65204;48.606;7.598;2023-03-23T01:21:24;1.50;1.00;1.00
76383;PMS7003;65204;48.606;7.598;2023-03-23T01:21:55;1.00;1.00;1.00
76383;PMS7003;65204;48.606;7.598;2023-03-23T01:22:25;2.00;2.00;2.00
76383;PMS7003;65204;48.606;7.598;2023-03-23T01:22:55;2.00;2.00;2.00
76383;PMS7003;65204;48.606;7.598;2023-03-23T01:23:31;3.80;2.40;2.20
76383;PMS7003;65204;48.606;7.598;2023-03-23T01:24:03;2.40;2.40;2.00
76383;PMS7003;65204;48.606;7.598;2023-03-23T01:24:33;2.00;2.00;1.00
76383;PMS7003;65204;48.606;7.598;2023-03-23T01:25:04;3.75;3.00;2.25
76383;PMS7003;65204;48.606;7.598;2023-03-23T01:25:36;5.20;2.20;2.20
76383;PMS7003;65204;48.606;7.598;2023-03-23T01:26:08;2.20;1.00;0.20
76383;PMS7003;65204;48.606;7.598;2023-03-23T01:26:40;2.40;2.40;2.00
76383;PMS7003;65204;48.606;7.598;2023-03-23T01:27:11;2.50;2.50;2.00
76383;PMS7003;65204;48.606;7.598;2023-03-23T01:27:41;2.00;2.00;2.00
76383;PMS7003;65204;48.606;7.598;2023-03-23T01:28:11;4.00;3.00;2.00
76383;PMS7003;65204;48.606;7.598;2023-03-23T01:28:42;2.50;2.50;2.50
76383;PMS7003;65204;48.606;7.598;2023-03-23T01:29:13;3.20;2.60;2.40
76383;PMS7003;65204;48.606;7.598;2023-03-23T01:29:43;2.75;2.75;2.00
76383;PMS7003;65204;48.606;7.598;2023-03-23T01:30:14;2.00;2.00;2.00
76383;PMS7003;65204;48.606;7.598;2023-03-23T01:30:44;2.75;2.00;2.00
76383;PMS7003;65204;48.606;7.598;2023-03-23T01:31:18;3.50;3.50;3.00
76383;PMS7003;65204;48.606;7.598;2023-03-23T01:31:50;3.00;3.00;2.60
76383;PMS7003;65204;48.606;7.598;2023-03-23T01:32:21;3.00;2.25;2.00
76383;PMS7003;65204;48.606;7.598;2023-03-23T01:32:51;3.00;3.00;3.00
76383;PMS7003;65204;48.606;7.598;2023-03-23T01:33:22;3.00;2.25;1.75
76383;PMS7003;65204;48.606;7.598;2023-03-23T01:33:52;4.25;3.00;2.25
76383;PMS7003;65204;48.606;7.598;2023-03-23T01:34:25;3.00;3.00;2.00
76383;PMS7003;65204;48.606;7.598;2023-03-23T01:34:55;3.50;3.50;3.00
76383;PMS7003;65204;48.606;7.598;2023-03-23T01:35:25;3.00;3.00;2.75
76383;PMS7003;65204;48.606;7.598;2023-03-23T01:35:56;3.00;3.00;3.00
76383;PMS7003;65204;48.606;7.598;2023-03-23T01:36:27;5.00;2.50;2.50
76383;PMS7003;65204;48.606;7.598;2023-03-23T01:37:02;2.80;2.80;2.40
76383;PMS7003;65204;48.606;7.598;2023-03-23T01:37:32;3.50;3.50;3.00
76383;PMS7003;65204;48.606;7.598;2023-03-23T01:38:03;6.00;4.00;3.75
76383;PMS7003;65204;48.606;7.598;2023-03-23T01:38:33;4.00;4.00;3.50
76383;PMS7003;65204;48.606;7.598;2023-03-23T01:39:05;4.00;4.00;3.00
76383;PMS7003;65204;48.606;7.598;2023-03-23T01:39:36;3.80;3.80;3.00
76383;PMS7003;65204;48.606;7.598;2023-03-23T01:40:07;4.60;4.00;3.20
76383;PMS7003;65204;48.606;7.598;2023-03-23T01:40:38;4.40;3.20;3.00
76383;PMS7003;65204;48.606;7.598;2023-03-23T01:41:09;4.00;4.00;3.25
76383;PMS7003;65204;48.606;7.598;2023-03-23T01:41:40;2.00;2.00;2.00
76383;PMS7003;65204;48.606;7.598;2023-03-23T01:42:11;3.50;3.50;3.00
76383;PMS7003;65204;48.606;7.598;2023-03-23T01:42:41;3.75;3.25;3.00
76383;PMS7003;65204;48.606;7.598;2023-03-23T01:43:13;4.50;4.00;3.00
76383;PMS7003;65204;48.606;7.598;2023-03-23T01:45:11;4.25;4.25;3.75
76383;PMS7003;65204;48.606;7.598;2023-03-23T01:45:52;4.00;4.00;3.60
76383;PMS7003;65204;48.606;7.598;2023-03-23T01:46:25;4.00;4.00;3.00
76383;PMS7003;65204;48.606;7.598;2023-03-23T01:46:57;4.60;3.20;3.00
76383;PMS7003;65204;48.606;7.598;2023-03-23T01:47:27;4.00;3.00;3.00
76383;PMS7003;65204;48.606;7.598;2023-03-23T01:47:59;4.00;4.00;4.00
76383;PMS7003;65204;48.606;7.598;2023-03-23T01:48:35;4.20;4.20;4.00
76383;PMS7003;65204;48.606;7.598;2023-03-23T01:49:12;5.00;4.00;3.80
76383;PMS7003;65204;48.606;7.598;2023-03-23T01:49:46;6.40;5.60;4.20
76383;PMS7003;65204;48.606;7.598;2023-03-23T01:50:19;7.80;6.00;4.00
76383;PMS7003;65204;48.606;7.598;2023-03-23T01:51:09;3.00;3.00;2.20
76383;PMS7003;65204;48.606;7.598;2023-03-23T01:51:46;5.20;4.40;3.40
76383;PMS7003;65204;48.606;7.598;2023-03-23T01:52:22;4.20;4.20;3.40
76383;PMS7003;65204;48.606;7.598;2023-03-23T01:52:55;6.20;3.20;3.00
76383;PMS7003;65204;48.606;7.598;2023-03-23T01:53:28;5.40;5.40;4.60
76383;PMS7003;65204;48.606;7.598;2023-03-23T01:54:04;5.40;4.80;4.00
76383;PMS7003;65204;48.606;7.598;2023-03-23T01:54:39;3.80;3.40;3.20
76383;PMS7003;65204;48.606;7.598;2023-03-23T01:55:10;7.40;6.00;5.60
76383;PMS7003;65204;48.606;7.598;2023-03-23T01:55:41;7.75;4.00;3.00
76383;PMS7003;65204;48.606;7.598;2023-03-23T01:56:19;5.20;4.20;4.00
76383;PMS7003;65204;48.606;7.598;2023-03-23T01:56:58;7.60;7.60;4.80
76383;PMS7003;65204;48.606;7.598;2023-03-23T01:57:32;3.60;3.00;3.00
76383;PMS7003;65204;48.606;7.598;2023-03-23T01:58:03;5.40;5.40;4.40
76383;PMS7003;65204;48.606;7.598;2023-03-23T01:58:34;5.20;5.20;4.80
76383;PMS7003;65204;48.606;7.598;2023-03-23T01:59:08;4.60;3.80;3.40
76383;PMS7003;65204;48.606;7.598;2023-03-23T01:59:41;6.00;4.80;4.00
76383;PMS7003;65204;48.606;7.598;2023-03-23T02:00:15;4.00;4.00;3.00
76383;PMS7003;65204;48.606;7.598;2023-03-23T02:00:46;6.00;6.00;5.00
76383;PMS7003;65204;48.606;7.598;2023-03-23T02:01:17;6.00;2.00;2.00
76383;PMS7003;65204;48.606;7.598;2023-03-23T02:01:48;6.00;5.00;4.00
76383;PMS7003;65204;48.606;7.598;2023-03-23T02:02:22;4.60;4.20;4.00
76383;PMS7003;65204;48.606;7.598;2023-03-23T02:02:54;5.80;5.80;4.80
76383;PMS7003;65204;48.606;7.598;2023-03-23T02:03:25;7.25;5.25;4.50
76383;PMS7003;65204;48.606;7.598;2023-03-23T02:03:57;5.20;5.20;4.00
76383;PMS7003;65204;48.606;7.598;2023-03-23T02:04:28;5.00;5.00;4.00
76383;PMS7003;65204;48.606;7.598;2023-03-23T02:05:02;6.00;5.00;4.00
76383;PMS7003;65204;48.606;7.598;2023-03-23T02:05:39;6.20;6.00;4.60
76383;PMS7003;65204;48.606;7.598;2023-03-23T02:06:11;8.40;7.60;5.80
76383;PMS7003;65204;48.606;7.598;2023-03-23T02:06:42;10.25;9.00;5.00
76383;PMS7003;65204;48.606;7.598;2023-03-23T02:07:15;9.00;8.00;7.20
76383;PMS7003;65204;48.606;7.598;2023-03-23T02:07:49;6.20;6.20;4.80
76383;PMS7003;65204;48.606;7.598;2023-03-23T02:08:20;7.60;6.60;5.00
76383;PMS7003;65204;48.606;7.598;2023-03-23T02:08:50;6.75;5.75;4.50
76383;PMS7003;65204;48.606;7.598;2023-03-23T02:09:22;5.00;4.80;4.20
76383;PMS7003;65204;48.606;7.598;2023-03-23T02:09:55;6.00;4.40;3.00
76383;PMS7003;65204;48.606;7.598;2023-03-23T02:10:25;7.50;7.50;6.00
76383;PMS7003;65204;48.606;7.598;2023-03-23T02:10:56;6.75;5.25;4.00
76383;PMS7003;65204;48.606;7.598;2023-03-23T02:11:26;6.50;5.00;4.00
76383;PMS7003;65204;48.606;7.598;2023-03-23T02:11:57;7.75;7.00;5.00
76383;PMS7003;65204;48.606;7.598;2023-03-23T02:12:27;8.75;7.25;4.25
76383;PMS7003;65204;48.606;7.598;2023-03-23T02:12:58;7.50;5.50;4.00
76383;PMS7003;65204;48.606;7.598;2023-03-23T02:13:30;4.60;4.60;3.60
76383;PMS7003;65204;48.606;7.598;2023-03-23T02:14:00;7.00;4.75;4.00
76383;PMS7003;65204;48.606;7.598;2023-03-23T02:14:34;8.60;5.80;5.00
76383;PMS7003;65204;48.606;7.598;2023-03-23T02:15:05;4.00;4.00;3.00
76383;PMS7003;65204;48.606;7.598;2023-03-23T02:16:19;5.20;5.20;5.00
76383;PMS7003;65204;48.606;7.598;2023-03-23T02:16:55;7.40;4.80;3.80
76383;PMS7003;65204;48.606;7.598;2023-03-23T02:17:37;7.40;6.20;4.80
76383;PMS7003;65204;48.606;7.598;2023-03-23T02:18:20;6.20;5.00;4.80
76383;PMS7003;65204;48.606;7.598;2023-03-23T02:20:05;8.00;6.00;5.20
76383;PMS7003;65204;48.606;7.598;2023-03-23T02:21:46;6.80;5.40;4.60
76383;PMS7003;65204;48.606;7.598;2023-03-23T02:24:53;5.60;5.00;4.00
76383;PMS7003;65204;48.606;7.598;2023-03-23T02:25:41;6.40;5.60;4.40
76383;PMS7003;65204;48.606;7.598;2023-03-23T02:28:28;4.40;4.40;3.40
76383;PMS7003;65204;48.606;7.598;2023-03-23T02:31:27;11.60;7.80;6.00
76383;PMS7003;65204;48.606;7.598;2023-03-23T02:32:08;7.00;6.80;5.40
76383;PMS7003;65204;48.606;7.598;2023-03-23T02:34:27;6.40;6.40;5.00
76383;PMS7003;65204;48.606;7.598;2023-03-23T02:35:03;7.60;6.20;5.00
76383;PMS7003;65204;48.606;7.598;2023-03-23T02:35:44;9.00;9.00;8.00
76383;PMS7003;65204;48.606;7.598;2023-03-23T02:36:25;5.60;5.60;4.60
76383;PMS7003;65204;48.606;7.598;2023-03-23T02:38:00;10.00;8.00;6.00
76383;PMS7003;65204;48.606;7.598;2023-03-23T02:38:14;7.00;5.20;4.20
76383;PMS7003;65204;48.606;7.598;2023-03-23T02:38:57;7.40;7.40;5.00
76383;PMS7003;65204;48.606;7.598;2023-03-23T02:39:43;5.60;4.60;4.00
76383;PMS7003;65204;48.606;7.598;2023-03-23T02:40:21;6.00;4.60;4.00
76383;PMS7003;65204;48.606;7.598;2023-03-23T02:40:56;6.20;6.00;5.00
76383;PMS7003;65204;48.606;7.598;2023-03-23T02:41:31;6.00;6.00;5.20
76383;PMS7003;65204;48.606;7.598;2023-03-23T02:42:08;5.80;5.80;5.00
76383;PMS7003;65204;48.606;7.598;2023-03-23T02:42:40;6.00;4.40;3.20
76383;PMS7003;65204;48.606;7.598;2023-03-23T02:43:14;9.20;8.20;5.60
76383;PMS7003;65204;48.606;7.598;2023-03-23T02:43:47;7.80;7.80;6.40
76383;PMS7003;65204;48.606;7.598;2023-03-23T02:44:21;7.80;7.20;5.20
76383;PMS7003;65204;48.606;7.598;2023-03-23T02:44:53;9.00;7.00;5.00
76383;PMS7003;65204;48.606;7.598;2023-03-23T02:45:27;5.00;5.00;4.60
76383;PMS7003;65204;48.606;7.598;2023-03-23T02:45:59;5.80;5.80;5.20
76383;PMS7003;65204;48.606;7.598;2023-03-23T02:46:30;6.40;6.40;5.80
76383;PMS7003;65204;48.606;7.598;2023-03-23T02:47:02;5.80;4.20;3.40
76383;PMS7003;65204;48.606;7.598;2023-03-23T02:47:35;5.60;5.60;4.60
76383;PMS7003;65204;48.606;7.598;2023-03-23T02:48:08;6.40;6.40;5.00
76383;PMS7003;65204;48.606;7.598;2023-03-23T02:48:42;5.60;5.60;4.40
76383;PMS7003;65204;48.606;7.598;2023-03-23T02:49:15;4.60;4.60;3.80
76383;PMS7003;65204;48.606;7.598;2023-03-23T02:49:48;7.60;6.00;5.00
76383;PMS7003;65204;48.606;7.598;2023-03-23T02:50:22;4.00;3.20;2.60
76383;PMS7003;65204;48.606;7.598;2023-03-23T02:50:55;6.60;6.60;4.60
76383;PMS7003;65204;48.606;7.598;2023-03-23T02:51:27;6.20;6.20;4.80
76383;PMS7003;65204;48.606;7.598;2023-03-23T02:51:59;5.40;5.40;5.00
76383;PMS7003;65204;48.606;7.598;2023-03-23T02:52:32;4.60;4.20;4.00
76383;PMS7003;65204;48.606;7.598;2023-03-23T02:53:05;6.00;6.00;5.00
76383;PMS7003;65204;48.606;7.598;2023-03-23T02:53:40;6.40;6.40;5.80
76383;PMS7003;65204;48.606;7.598;2023-03-23T02:54:13;4.80;4.80;4.00
76383;PMS7003;65204;48.606;7.598;2023-03-23T02:54:46;5.00;5.00;4.60
76383;PMS7003;65204;48.606;7.598;2023-03-23T02:55:19;6.20;6.20;5.00
76383;PMS7003;65204;48.606;7.598;2023-03-23T02:55:54;5.40;5.20;4.80
76383;PMS7003;65204;48.606;7.598;2023-03-23T02:56:27;7.00;4.80;4.00
76383;PMS7003;65204;48.606;7.598;2023-03-23T02:56:59;6.60;5.40;4.40
76383;PMS7003;65204;48.606;7.598;2023-03-23T02:57:31;8.00;6.00;5.00
76383;PMS7003;65204;48.606;7.598;2023-03-23T02:58:01;7.50;6.00;5.00
76383;PMS7003;65204;48.606;7.598;2023-03-23T02:58:32;5.75;5.50;4.50
76383;PMS7003;65204;48.606;7.598;2023-03-23T02:59:03;6.40;6.40;5.60
76383;PMS7003;65204;48.606;7.598;2023-03-23T02:59:33;7.00;7.00;5.75
76383;PMS7003;65204;48.606;7.598;2023-03-23T03:00:05;6.25;5.50;4.50
76383;PMS7003;65204;48.606;7.598;2023-03-23T03:00:45;6.60;6.60;6.00
76383;PMS7003;65204;48.606;7.598;2023-03-23T03:02:57;7.00;5.80;5.40
76383;PMS7003;65204;48.606;7.598;2023-03-23T03:03:28;5.50;5.50;5.00
76383;PMS7003;65204;48.606;7.598;2023-03-23T03:04:01;6.40;5.20;5.20
76383;PMS7003;65204;48.606;7.598;2023-03-23T03:04:39;7.00;5.60;4.40
76383;PMS7003;65204;48.606;7.598;2023-03-23T03:05:26;6.20;5.40;4.40
76383;PMS7003;65204;48.606;7.598;2023-03-23T03:06:08;5.40;5.20;4.20
76383;PMS7003;65204;48.606;7.598;2023-03-23T03:07:59;6.60;6.60;6.40
76383;PMS7003;65204;48.606;7.598;2023-03-23T03:08:52;7.00;4.80;4.00
76383;PMS7003;65204;48.606;7.598;2023-03-23T03:09:43;6.40;6.40;5.20
76383;PMS7003;65204;48.606;7.598;2023-03-23T03:10:28;5.60;5.60;4.80
76383;PMS7003;65204;48.606;7.598;2023-03-23T03:11:47;5.60;5.00;4.40
76383;PMS7003;65204;48.606;7.598;2023-03-23T03:12:44;5.80;5.80;5.40
76383;PMS7003;65204;48.606;7.598;2023-03-23T03:14:09;8.40;6.60;4.20
76383;PMS7003;65204;48.606;7.598;2023-03-23T03:14:49;8.20;6.20;5.40
76383;PMS7003;65204;48.606;7.598;2023-03-23T03:16:33;8.00;7.00;5.40
76383;PMS7003;65204;48.606;7.598;2023-03-23T03:17:25;10.20;6.80;6.20
76383;PMS7003;65204;48.606;7.598;2023-03-23T03:18:39;6.60;6.60;5.40
76383;PMS7003;65204;48.606;7.598;2023-03-23T03:19:22;6.00;4.80;4.60
76383;PMS7003;65204;48.606;7.598;2023-03-23T03:20:05;5.80;5.80;4.80
76383;PMS7003;65204;48.606;7.598;2023-03-23T03:20:42;5.00;5.00;4.00
76383;PMS7003;65204;48.606;7.598;2023-03-23T03:21:16;6.00;6.00;5.00
76383;PMS7003;65204;48.606;7.598;2023-03-23T03:21:50;5.60;5.60;5.00
76383;PMS7003;65204;48.606;7.598;2023-03-23T03:22:22;6.60;5.80;4.80
76383;PMS7003;65204;48.606;7.598;2023-03-23T03:22:58;5.60;5.60;4.80
76383;PMS7003;65204;48.606;7.598;2023-03-23T03:23:30;6.40;5.40;4.80
76383;PMS7003;65204;48.606;7.598;2023-03-23T03:24:03;7.20;5.60;5.20
76383;PMS7003;65204;48.606;7.598;2023-03-23T03:24:36;7.80;4.80;3.40
76383;PMS7003;65204;48.606;7.598;2023-03-23T03:25:08;5.40;5.40;4.60
76383;PMS7003;65204;48.606;7.598;2023-03-23T03:25:43;5.60;5.60;4.40
76383;PMS7003;65204;48.606;7.598;2023-03-23T03:26:17;7.20;5.80;5.00
76383;PMS7003;65204;48.606;7.598;2023-03-23T03:26:51;8.60;7.20;6.00
76383;PMS7003;65204;48.606;7.598;2023-03-23T03:27:23;7.60;7.60;5.80
76383;PMS7003;65204;48.606;7.598;2023-03-23T03:27:55;8.40;6.80;5.60
76383;PMS7003;65204;48.606;7.598;2023-03-23T03:28:26;7.00;5.60;5.00
76383;PMS7003;65204;48.606;7.598;2023-03-23T03:28:57;6.00;6.00;5.00
76383;PMS7003;65204;48.606;7.598;2023-03-23T03:29:28;9.00;7.80;6.00
76383;PMS7003;65204;48.606;7.598;2023-03-23T03:30:03;6.00;6.00;4.60
76383;PMS7003;65204;48.606;7.598;2023-03-23T03:30:40;5.40;5.40;5.20
76383;PMS7003;65204;48.606;7.598;2023-03-23T03:31:15;6.80;6.40;5.40
76383;PMS7003;65204;48.606;7.598;2023-03-23T03:31:49;6.60;6.00;5.00
76383;PMS7003;65204;48.606;7.598;2023-03-23T03:32:29;5.40;5.40;4.60
76383;PMS7003;65204;48.606;7.598;2023-03-23T03:33:04;7.60;5.80;5.40
76383;PMS7003;65204;48.606;7.598;2023-03-23T03:33:34;6.00;6.00;5.00
76383;PMS7003;65204;48.606;7.598;2023-03-23T03:34:05;4.50;4.50;4.50